sensor_id;sensor_type;location;lat;lon;timestamp;P1;durP1;ratioP1;P2;durP2;ratioP2
18399;SDS011;9326;49.468;11.008;2023-04-03T05:02:08;3.60;;;2.10;;
18399;SDS011;9326;49.468;11.008;2023-04-03T05:04:35;4.47;;;2.40;;
18399;SDS011;9326;49.468;11.008;2023-04-03T05:07:02;2.87;;;1.90;;
18399;SDS011;9326;49.468;11.008;2023-04-03T05:09:30;3.67;;;1.80;;
18399;SDS011;9326;49.468;11.008;2023-04-03T05:11:57;3.37;;;2.43;;
18399;SDS011;9326;49.468;11.008;2023-04-03T05:14:24;2.60;;;2.10;;
18399;SDS011;9326;49.468;11.008;2023-04-03T05:16:51;3.97;;;2.10;;
18399;SDS011;9326;49.468;11.008;2023-04-03T05:19:20;3.13;;;2.00;;
18399;SDS011;9326;49.468;11.008;2023-04-03T05:21:50;5.47;;;2.57;;
18399;SDS011;9326;49.468;11.008;2023-04-03T05:24:19;2.63;;;2.40;;
18399;SDS011;9326;49.468;11.008;2023-04-03T05:26:46;5.53;;;2.33;;
18399;SDS011;9326;49.468;11.008;2023-04-03T05:29:14;4.13;;;2.47;;
18399;SDS011;9326;49.468;11.008;2023-04-03T05:31:42;2.77;;;2.37;;
18399;SDS011;9326;49.468;11.008;2023-04-03T05:34:09;4.50;;;2.47;;
18399;SDS011;9326;49.468;11.008;2023-04-03T05:36:38;4.60;;;3.33;;
18399;SDS011;9326;49.468;11.008;2023-04-03T05:39:05;5.00;;;2.60;;
18399;SDS011;9326;49.468;11.008;2023-04-03T05:41:32;5.80;;;2.93;;
18399;SDS011;9326;49.468;11.008;2023-04-03T05:43:59;5.70;;;2.20;;
18399;SDS011;9326;49.468;11.008;2023-04-03T05:46:26;2.40;;;2.20;;
18399;SDS011;9326;49.468;11.008;2023-04-03T05:48:53;4.50;;;2.50;;
18399;SDS011;9326;49.468;11.008;2023-04-03T05:51:22;3.23;;;2.10;;
18399;SDS011;9326;49.468;11.008;2023-04-03T05:53:52;4.63;;;2.53;;
18399;SDS011;9326;49.468;11.008;2023-04-03T05:56:24;5.83;;;2.60;;
18399;SDS011;9326;49.468;11.008;2023-04-03T05:58:51;5.23;;;1.90;;
18399;SDS011;9326;49.468;11.008;2023-04-03T06:01:18;7.50;;;2.37;;
18399;SDS011;9326;49.468;11.008;2023-04-03T06:03:46;3.20;;;2.30;;
18399;SDS011;9326;49.468;11.008;2023-04-03T06:06:14;4.87;;;2.17;;
18399;SDS011;9326;49.468;11.008;2023-04-03T06:08:41;2.13;;;1.93;;
18399;SDS011;9326;49.468;11.008;2023-04-03T06:11:13;4.03;;;2.00;;
18399;SDS011;9326;49.468;11.008;2023-04-03T06:13:40;5.17;;;1.90;;
18399;SDS011;9326;49.468;11.008;2023-04-03T06:16:08;3.63;;;1.50;;
18399;SDS011;9326;49.468;11.008;2023-04-03T06:18:35;2.50;;;2.30;;
18399;SDS011;9326;49.468;11.008;2023-04-03T06:21:02;3.67;;;2.17;;
18399;SDS011;9326;49.468;11.008;2023-04-03T06:23:31;3.97;;;1.03;;
18399;SDS011;9326;49.468;11.008;2023-04-03T06:26:00;3.83;;;1.83;;
18399;SDS011;9326;49.468;11.008;2023-04-03T06:28:29;2.10;;;1.40;;
18399;SDS011;9326;49.468;11.008;2023-04-03T06:30:56;3.17;;;1.37;;
18399;SDS011;9326;49.468;11.008;2023-04-03T06:33:23;3.60;;;1.90;;
18399;SDS011;9326;49.468;11.008;2023-04-03T06:35:55;3.30;;;2.07;;
18399;SDS011;9326;49.468;11.008;2023-04-03T06:38:22;3.37;;;1.43;;
18399;SDS011;9326;49.468;11.008;2023-04-03T06:40:49;2.37;;;1.80;;
18399;SDS011;9326;49.468;11.008;2023-04-03T06:43:18;2.93;;;2.13;;
18399;SDS011;9326;49.468;11.008;2023-04-03T06:45:47;1.77;;;0.87;;
18399;SDS011;9326;49.468;11.008;2023-04-03T06:48:14;3.17;;;1.80;;
18399;SDS011;9326;49.468;11.008;2023-04-03T06:50:41;3.87;;;1.97;;
18399;SDS011;9326;49.468;11.008;2023-04-03T06:53:08;2.50;;;1.27;;
18399;SDS011;9326;49.468;11.008;2023-04-03T06:55:36;1.23;;;1.13;;
18399;SDS011;9326;49.468;11.008;2023-04-03T06:58:04;5.20;;;1.80;;
18399;SDS011;9326;49.468;11.008;2023-04-03T07:00:31;6.50;;;2.87;;
18399;SDS011;9326;49.468;11.008;2023-04-03T07:02:59;5.20;;;2.23;;
18399;SDS011;9326;49.468;11.008;2023-04-03T07:05:28;3.10;;;2.17;;
18399;SDS011;9326;49.468;11.008;2023-04-03T07:07:55;2.70;;;2.20;;
18399;SDS011;9326;49.468;11.008;2023-04-03T07:10:23;2.83;;;1.80;;
18399;SDS011;9326;49.468;11.008;2023-04-03T07:12:50;3.83;;;2.07;;
18399;SDS011;9326;49.468;11.008;2023-04-03T07:15:17;4.17;;;2.60;;
18399;SDS011;9326;49.468;11.008;2023-04-03T07:17:44;6.60;;;2.57;;
18399;SDS011;9326;49.468;11.008;2023-04-03T07:20:15;5.80;;;2.50;;
18399;SDS011;9326;49.468;11.008;2023-04-03T07:22:42;6.73;;;2.57;;
18399;SDS011;9326;49.468;11.008;2023-04-03T07:25:10;4.03;;;2.57;;
18399;SDS011;9326;49.468;11.008;2023-04-03T07:27:37;3.23;;;1.60;;
18399;SDS011;9326;49.468;11.008;2023-04-03T07:30:04;5.17;;;2.43;;
18399;SDS011;9326;49.468;11.008;2023-04-03T07:32:32;5.53;;;1.63;;
18399;SDS011;9326;49.468;11.008;2023-04-03T07:35:00;3.87;;;1.37;;
18399;SDS011;9326;49.468;11.008;2023-04-03T07:37:28;1.50;;;1.40;;
18399;SDS011;9326;49.468;11.008;2023-04-03T07:39:55;2.27;;;1.30;;
18399;SDS011;9326;49.468;11.008;2023-04-03T07:42:24;2.37;;;1.30;;
18399;SDS011;9326;49.468;11.008;2023-04-03T07:44:51;4.93;;;2.37;;
18399;SDS011;9326;49.468;11.008;2023-04-03T07:47:18;6.73;;;2.10;;
18399;SDS011;9326;49.468;11.008;2023-04-03T07:49:46;2.47;;;2.27;;
18399;SDS011;9326;49.468;11.008;2023-04-03T07:52:13;2.23;;;1.90;;
18399;SDS011;9326;49.468;11.008;2023-04-03T07:54:42;3.67;;;2.07;;
18399;SDS011;9326;49.468;11.008;2023-04-03T07:57:10;3.10;;;2.07;;
18399;SDS011;9326;49.468;11.008;2023-04-03T07:59:37;1.57;;;1.47;;
18399;SDS011;9326;49.468;11.008;2023-04-03T08:02:07;2.57;;;1.80;;
18399;SDS011;9326;49.468;11.008;2023-04-03T08:04:35;3.77;;;1.97;;
18399;SDS011;9326;49.468;11.008;2023-04-03T08:07:03;4.93;;;2.30;;
18399;SDS011;9326;49.468;11.008;2023-04-03T08:09:31;4.20;;;2.27;;
18399;SDS011;9326;49.468;11.008;2023-04-03T08:11:59;4.23;;;2.20;;
18399;SDS011;9326;49.468;11.008;2023-04-03T08:14:26;2.40;;;1.67;;
18399;SDS011;9326;49.468;11.008;2023-04-03T08:16:53;3.60;;;1.63;;
18399;SDS011;9326;49.468;11.008;2023-04-03T08:19:21;3.63;;;2.10;;
18399;SDS011;9326;49.468;11.008;2023-04-03T08:21:50;3.27;;;2.10;;
18399;SDS011;9326;49.468;11.008;2023-04-03T08:24:17;4.77;;;2.20;;
18399;SDS011;9326;49.468;11.008;2023-04-03T08:26:44;3.13;;;2.10;;
18399;SDS011;9326;49.468;11.008;2023-04-03T08:29:12;3.13;;;1.40;;
18399;SDS011;9326;49.468;11.008;2023-04-03T08:31:40;3.53;;;1.63;;
18399;SDS011;9326;49.468;11.008;2023-04-03T08:34:08;2.23;;;1.70;;
18399;SDS011;9326;49.468;11.008;2023-04-03T08:36:36;2.17;;;1.80;;
18399;SDS011;9326;49.468;11.008;2023-04-03T08:39:04;3.37;;;1.93;;
18399;SDS011;9326;49.468;11.008;2023-04-03T08:41:32;2.43;;;1.50;;
18399;SDS011;9326;49.468;11.008;2023-04-03T08:44:02;4.23;;;1.50;;
18399;SDS011;9326;49.468;11.008;2023-04-03T08:46:37;2.33;;;1.97;;
18399;SDS011;9326;49.468;11.008;2023-04-03T08:51:36;3.73;;;1.87;;
18399;SDS011;9326;49.468;11.008;2023-04-03T08:54:06;2.90;;;1.60;;
18399;SDS011;9326;49.468;11.008;2023-04-03T08:56:41;3.67;;;1.90;;
18399;SDS011;9326;49.468;11.008;2023-04-03T08:59:10;3.37;;;1.40;;
18399;SDS011;9326;49.468;11.008;2023-04-03T09:01:41;4.93;;;1.93;;
18399;SDS011;9326;49.468;11.008;2023-04-03T09:04:09;2.67;;;1.50;;
18399;SDS011;9326;49.468;11.008;2023-04-03T09:06:37;4.33;;;1.23;;
18399;SDS011;9326;49.468;11.008;2023-04-03T09:09:08;3.23;;;1.70;;
18399;SDS011;9326;49.468;11.008;2023-04-03T09:11:41;1.50;;;1.37;;
18399;SDS011;9326;49.468;11.008;2023-04-03T09:14:13;2.03;;;1.10;;
18399;SDS011;9326;49.468;11.008;2023-04-03T09:16:48;2.10;;;1.00;;
18399;SDS011;9326;49.468;11.008;2023-04-03T09:19:18;2.57;;;1.67;;
18399;SDS011;9326;49.468;11.008;2023-04-03T09:21:48;2.23;;;1.50;;
18399;SDS011;9326;49.468;11.008;2023-04-03T09:24:16;0.60;;;0.57;;
18399;SDS011;9326;49.468;11.008;2023-04-03T09:26:45;2.77;;;1.53;;
18399;SDS011;9326;49.468;11.008;2023-04-03T09:29:16;2.20;;;1.70;;
18399;SDS011;9326;49.468;11.008;2023-04-03T09:31:49;2.37;;;1.20;;
18399;SDS011;9326;49.468;11.008;2023-04-03T09:34:18;2.47;;;0.97;;
18399;SDS011;9326;49.468;11.008;2023-04-03T09:36:48;1.30;;;1.10;;
18399;SDS011;9326;49.468;11.008;2023-04-03T09:39:17;3.03;;;1.53;;
18399;SDS011;9326;49.468;11.008;2023-04-03T09:41:54;3.10;;;1.60;;
18399;SDS011;9326;49.468;11.008;2023-04-03T09:44:24;2.23;;;1.40;;
18399;SDS011;9326;49.468;11.008;2023-04-03T09:46:53;3.23;;;1.47;;
18399;SDS011;9326;49.468;11.008;2023-04-03T09:49:20;2.00;;;1.57;;
18399;SDS011;9326;49.468;11.008;2023-04-03T09:51:49;2.23;;;1.30;;
18399;SDS011;9326;49.468;11.008;2023-04-03T09:54:33;1.73;;;1.03;;
18399;SDS011;9326;49.468;11.008;2023-04-03T09:57:04;2.90;;;1.57;;
18399;SDS011;9326;49.468;11.008;2023-04-03T09:59:32;2.03;;;1.27;;
18399;SDS011;9326;49.468;11.008;2023-04-03T10:02:16;2.67;;;1.50;;
18399;SDS011;9326;49.468;11.008;2023-04-03T10:04:47;1.13;;;0.83;;
18399;SDS011;9326;49.468;11.008;2023-04-03T10:07:26;0.80;;;0.60;;
18399;SDS011;9326;49.468;11.008;2023-04-03T10:09:54;2.33;;;1.37;;
18399;SDS011;9326;49.468;11.008;2023-04-03T10:12:21;2.00;;;1.20;;
18399;SDS011;9326;49.468;11.008;2023-04-03T10:14:53;3.10;;;1.40;;
18399;SDS011;9326;49.468;11.008;2023-04-03T10:17:23;1.33;;;1.10;;
18399;SDS011;9326;49.468;11.008;2023-04-03T10:19:55;1.50;;;1.13;;
18399;SDS011;9326;49.468;11.008;2023-04-03T10:22:24;1.20;;;1.10;;
18399;SDS011;9326;49.468;11.008;2023-04-03T10:24:59;1.57;;;1.17;;
18399;SDS011;9326;49.468;11.008;2023-04-03T10:27:35;3.10;;;1.30;;
18399;SDS011;9326;49.468;11.008;2023-04-03T10:30:10;2.03;;;1.30;;
18399;SDS011;9326;49.468;11.008;2023-04-03T10:32:47;2.23;;;1.70;;
18399;SDS011;9326;49.468;11.008;2023-04-03T10:35:18;1.47;;;1.20;;
18399;SDS011;9326;49.468;11.008;2023-04-03T10:37:50;2.30;;;1.57;;
18399;SDS011;9326;49.468;11.008;2023-04-03T10:40:24;1.50;;;1.33;;
18399;SDS011;9326;49.468;11.008;2023-04-03T10:43:01;2.90;;;1.60;;
18399;SDS011;9326;49.468;11.008;2023-04-03T10:45:30;2.07;;;1.40;;
18399;SDS011;9326;49.468;11.008;2023-04-03T10:48:02;2.03;;;1.40;;
18399;SDS011;9326;49.468;11.008;2023-04-03T10:50:38;1.80;;;1.57;;
18399;SDS011;9326;49.468;11.008;2023-04-03T10:53:08;2.83;;;1.60;;
18399;SDS011;9326;49.468;11.008;2023-04-03T10:55:36;3.57;;;1.90;;
18399;SDS011;9326;49.468;11.008;2023-04-03T10:58:05;2.77;;;1.80;;
18399;SDS011;9326;49.468;11.008;2023-04-03T11:00:36;2.23;;;1.07;;
18399;SDS011;9326;49.468;11.008;2023-04-03T11:03:08;2.37;;;1.30;;
18399;SDS011;9326;49.468;11.008;2023-04-03T11:05:39;3.70;;;1.47;;
18399;SDS011;9326;49.468;11.008;2023-04-03T11:08:10;1.80;;;1.60;;
18399;SDS011;9326;49.468;11.008;2023-04-03T11:10:40;2.90;;;1.70;;
18399;SDS011;9326;49.468;11.008;2023-04-03T11:13:10;2.30;;;1.20;;
18399;SDS011;9326;49.468;11.008;2023-04-03T11:15:38;2.03;;;1.53;;
18399;SDS011;9326;49.468;11.008;2023-04-03T11:18:08;3.03;;;1.43;;
18399;SDS011;9326;49.468;11.008;2023-04-03T11:20:36;2.73;;;1.60;;
18399;SDS011;9326;49.468;11.008;2023-04-03T11:23:06;1.60;;;1.50;;
18399;SDS011;9326;49.468;11.008;2023-04-03T11:25:36;3.20;;;1.53;;
18399;SDS011;9326;49.468;11.008;2023-04-03T11:28:06;2.17;;;1.60;;
18399;SDS011;9326;49.468;11.008;2023-04-03T11:30:45;1.77;;;1.33;;
18399;SDS011;9326;49.468;11.008;2023-04-03T11:33:23;1.50;;;1.20;;
18399;SDS011;9326;49.468;11.008;2023-04-03T11:35:51;0.73;;;0.73;;
18399;SDS011;9326;49.468;11.008;2023-04-03T11:38:23;1.47;;;1.27;;
18399;SDS011;9326;49.468;11.008;2023-04-03T11:40:53;4.00;;;1.40;;
18399;SDS011;9326;49.468;11.008;2023-04-03T11:43:22;1.57;;;1.47;;
18399;SDS011;9326;49.468;11.008;2023-04-03T11:45:52;4.63;;;2.00;;
18399;SDS011;9326;49.468;11.008;2023-04-03T11:53:49;3.40;;;1.47;;
18399;SDS011;9326;49.468;11.008;2023-04-03T11:56:29;2.67;;;1.47;;
18399;SDS011;9326;49.468;11.008;2023-04-03T11:59:15;1.00;;;0.70;;
18399;SDS011;9326;49.468;11.008;2023-04-03T12:01:44;2.27;;;1.17;;
18399;SDS011;9326;49.468;11.008;2023-04-03T12:04:13;1.23;;;0.97;;
18399;SDS011;9326;49.468;11.008;2023-04-03T12:09:25;1.50;;;1.40;;
18399;SDS011;9326;49.468;11.008;2023-04-03T12:11:56;1.20;;;1.10;;
18399;SDS011;9326;49.468;11.008;2023-04-03T12:14:25;1.37;;;1.27;;
18399;SDS011;9326;49.468;11.008;2023-04-03T12:16:53;1.57;;;1.43;;
18399;SDS011;9326;49.468;11.008;2023-04-03T12:19:35;1.90;;;1.30;;
18399;SDS011;9326;49.468;11.008;2023-04-03T12:22:12;1.53;;;1.23;;
18399;SDS011;9326;49.468;11.008;2023-04-03T12:24:44;3.03;;;1.80;;
18399;SDS011;9326;49.468;11.008;2023-04-03T12:27:30;3.87;;;1.60;;
18399;SDS011;9326;49.468;11.008;2023-04-03T12:30:01;2.07;;;1.30;;
18399;SDS011;9326;49.468;11.008;2023-04-03T12:32:52;2.40;;;1.37;;
18399;SDS011;9326;49.468;11.008;2023-04-03T12:35:24;3.13;;;1.40;;
18399;SDS011;9326;49.468;11.008;2023-04-03T12:38:13;2.93;;;1.40;;
18399;SDS011;9326;49.468;11.008;2023-04-03T12:40:46;3.13;;;1.73;;
18399;SDS011;9326;49.468;11.008;2023-04-03T12:43:20;1.20;;;1.10;;
18399;SDS011;9326;49.468;11.008;2023-04-03T12:45:49;1.47;;;1.37;;
18399;SDS011;9326;49.468;11.008;2023-04-03T12:48:21;2.60;;;1.47;;
18399;SDS011;9326;49.468;11.008;2023-04-03T12:50:49;1.87;;;1.47;;
18399;SDS011;9326;49.468;11.008;2023-04-03T12:53:16;0.80;;;0.80;;
18399;SDS011;9326;49.468;11.008;2023-04-03T12:55:47;2.90;;;1.30;;
18399;SDS011;9326;49.468;11.008;2023-04-03T12:58:15;1.67;;;1.30;;
18399;SDS011;9326;49.468;11.008;2023-04-03T13:00:43;1.47;;;1.20;;
18399;SDS011;9326;49.468;11.008;2023-04-03T13:03:19;2.87;;;1.47;;
18399;SDS011;9326;49.468;11.008;2023-04-03T13:05:48;2.40;;;1.40;;
18399;SDS011;9326;49.468;11.008;2023-04-03T13:08:15;1.70;;;1.40;;
18399;SDS011;9326;49.468;11.008;2023-04-03T13:10:48;1.10;;;1.00;;
18399;SDS011;9326;49.468;11.008;2023-04-03T13:13:16;2.43;;;1.50;;
18399;SDS011;9326;49.468;11.008;2023-04-03T13:15:51;1.17;;;0.80;;
18399;SDS011;9326;49.468;11.008;2023-04-03T13:18:23;0.90;;;0.80;;
18399;SDS011;9326;49.468;11.008;2023-04-03T13:20:51;5.07;;;1.10;;
18399;SDS011;9326;49.468;11.008;2023-04-03T13:23:18;2.30;;;1.40;;
18399;SDS011;9326;49.468;11.008;2023-04-03T13:25:49;2.37;;;1.17;;
18399;SDS011;9326;49.468;11.008;2023-04-03T13:28:18;1.67;;;1.20;;
18399;SDS011;9326;49.468;11.008;2023-04-03T13:30:54;1.23;;;1.10;;
18399;SDS011;9326;49.468;11.008;2023-04-03T13:33:22;3.20;;;1.50;;
18399;SDS011;9326;49.468;11.008;2023-04-03T13:35:54;1.50;;;1.40;;
18399;SDS011;9326;49.468;11.008;2023-04-03T13:38:22;1.70;;;1.30;;
18399;SDS011;9326;49.468;11.008;2023-04-03T13:40:52;3.37;;;1.50;;
18399;SDS011;9326;49.468;11.008;2023-04-03T13:43:21;2.03;;;1.27;;
18399;SDS011;9326;49.468;11.008;2023-04-03T13:45:55;1.50;;;1.40;;
18399;SDS011;9326;49.468;11.008;2023-04-03T13:48:24;1.90;;;1.13;;
18399;SDS011;9326;49.468;11.008;2023-04-03T13:50:56;2.93;;;1.60;;
18399;SDS011;9326;49.468;11.008;2023-04-03T13:53:25;2.17;;;1.20;;
18399;SDS011;9326;49.468;11.008;2023-04-03T13:55:59;2.13;;;1.30;;
18399;SDS011;9326;49.468;11.008;2023-04-03T13:58:27;2.30;;;1.27;;
18399;SDS011;9326;49.468;11.008;2023-04-03T14:00:55;2.23;;;1.70;;
18399;SDS011;9326;49.468;11.008;2023-04-03T14:03:28;2.53;;;1.67;;
18399;SDS011;9326;49.468;11.008;2023-04-03T14:05:56;2.23;;;0.97;;
18399;SDS011;9326;49.468;11.008;2023-04-03T14:08:23;2.13;;;1.33;;
18399;SDS011;9326;49.468;11.008;2023-04-03T14:10:50;3.13;;;1.20;;
18399;SDS011;9326;49.468;11.008;2023-04-03T14:13:19;1.63;;;1.37;;
18399;SDS011;9326;49.468;11.008;2023-04-03T14:15:47;1.27;;;0.90;;
18399;SDS011;9326;49.468;11.008;2023-04-03T14:18:16;2.80;;;1.27;;
18399;SDS011;9326;49.468;11.008;2023-04-03T14:20:44;2.20;;;1.20;;
18399;SDS011;9326;49.468;11.008;2023-04-03T14:23:13;1.23;;;1.13;;
18399;SDS011;9326;49.468;11.008;2023-04-03T14:25:40;4.30;;;1.30;;
18399;SDS011;9326;49.468;11.008;2023-04-03T14:28:13;2.83;;;1.40;;
18399;SDS011;9326;49.468;11.008;2023-04-03T14:30:42;1.20;;;1.07;;
18399;SDS011;9326;49.468;11.008;2023-04-03T14:33:10;1.13;;;0.80;;
18399;SDS011;9326;49.468;11.008;2023-04-03T14:35:39;1.93;;;1.07;;
18399;SDS011;9326;49.468;11.008;2023-04-03T14:38:11;2.93;;;1.20;;
18399;SDS011;9326;49.468;11.008;2023-04-03T14:40:39;2.67;;;1.30;;
18399;SDS011;9326;49.468;11.008;2023-04-03T14:43:09;3.30;;;0.90;;
18399;SDS011;9326;49.468;11.008;2023-04-03T14:45:36;1.23;;;0.90;;
18399;SDS011;9326;49.468;11.008;2023-04-03T14:48:06;2.00;;;1.70;;
18399;SDS011;9326;49.468;11.008;2023-04-03T14:50:36;1.87;;;1.00;;
18399;SDS011;9326;49.468;11.008;2023-04-03T14:53:03;4.70;;;1.67;;
18399;SDS011;9326;49.468;11.008;2023-04-03T14:55:30;2.10;;;1.20;;
18399;SDS011;9326;49.468;11.008;2023-04-03T14:57:58;1.60;;;0.70;;
18399;SDS011;9326;49.468;11.008;2023-04-03T15:00:25;2.53;;;1.60;;
18399;SDS011;9326;49.468;11.008;2023-04-03T15:02:52;3.00;;;1.50;;
18399;SDS011;9326;49.468;11.008;2023-04-03T15:05:21;1.37;;;1.27;;
18399;SDS011;9326;49.468;11.008;2023-04-03T15:07:48;1.37;;;1.23;;
18399;SDS011;9326;49.468;11.008;2023-04-03T15:10:18;2.00;;;1.27;;
18399;SDS011;9326;49.468;11.008;2023-04-03T15:12:46;2.83;;;1.43;;
18399;SDS011;9326;49.468;11.008;2023-04-03T15:15:14;1.20;;;1.10;;
18399;SDS011;9326;49.468;11.008;2023-04-03T15:17:41;3.00;;;1.60;;
18399;SDS011;9326;49.468;11.008;2023-04-03T15:20:13;1.00;;;0.90;;
18399;SDS011;9326;49.468;11.008;2023-04-03T15:22:41;1.63;;;1.20;;
18399;SDS011;9326;49.468;11.008;2023-04-03T15:25:08;1.37;;;1.17;;
18399;SDS011;9326;49.468;11.008;2023-04-03T15:27:36;2.40;;;1.33;;
18399;SDS011;9326;49.468;11.008;2023-04-03T15:30:03;1.23;;;1.17;;
18399;SDS011;9326;49.468;11.008;2023-04-03T15:32:31;2.43;;;1.27;;
18399;SDS011;9326;49.468;11.008;2023-04-03T15:35:00;4.93;;;1.30;;
18399;SDS011;9326;49.468;11.008;2023-04-03T15:37:27;2.23;;;1.50;;
18399;SDS011;9326;49.468;11.008;2023-04-03T15:39:55;1.03;;;0.87;;
18399;SDS011;9326;49.468;11.008;2023-04-03T15:42:22;2.60;;;1.50;;
18399;SDS011;9326;49.468;11.008;2023-04-03T15:44:50;1.30;;;0.97;;
18399;SDS011;9326;49.468;11.008;2023-04-03T15:47:17;2.13;;;1.10;;
18399;SDS011;9326;49.468;11.008;2023-04-03T15:49:44;2.80;;;1.30;;
18399;SDS011;9326;49.468;11.008;2023-04-03T15:52:11;3.27;;;1.27;;
18399;SDS011;9326;49.468;11.008;2023-04-03T15:54:38;2.73;;;1.33;;
18399;SDS011;9326;49.468;11.008;2023-04-03T15:57:06;1.40;;;1.03;;
18399;SDS011;9326;49.468;11.008;2023-04-03T15:59:34;2.30;;;1.30;;
18399;SDS011;9326;49.468;11.008;2023-04-03T16:02:03;2.33;;;1.23;;
18399;SDS011;9326;49.468;11.008;2023-04-03T16:04:30;2.00;;;1.40;;
18399;SDS011;9326;49.468;11.008;2023-04-03T16:07:00;2.37;;;1.10;;
18399;SDS011;9326;49.468;11.008;2023-04-03T16:09:28;2.10;;;1.10;;
18399;SDS011;9326;49.468;11.008;2023-04-03T16:11:55;2.10;;;1.50;;
18399;SDS011;9326;49.468;11.008;2023-04-03T16:14:26;1.97;;;1.40;;
18399;SDS011;9326;49.468;11.008;2023-04-03T16:16:55;1.10;;;1.00;;
18399;SDS011;9326;49.468;11.008;2023-04-03T16:19:23;1.00;;;0.80;;
18399;SDS011;9326;49.468;11.008;2023-04-03T16:21:50;2.87;;;1.10;;
18399;SDS011;9326;49.468;11.008;2023-04-03T16:24:18;1.00;;;0.90;;
18399;SDS011;9326;49.468;11.008;2023-04-03T16:26:45;2.00;;;1.50;;
18399;SDS011;9326;49.468;11.008;2023-04-03T16:29:12;1.00;;;0.87;;
18399;SDS011;9326;49.468;11.008;2023-04-03T16:31:41;1.97;;;1.70;;
18399;SDS011;9326;49.468;11.008;2023-04-03T16:34:08;3.07;;;1.40;;
18399;SDS011;9326;49.468;11.008;2023-04-03T16:36:37;3.47;;;1.07;;
18399;SDS011;9326;49.468;11.008;2023-04-03T16:39:04;2.77;;;0.97;;
18399;SDS011;9326;49.468;11.008;2023-04-03T16:41:31;1.97;;;1.33;;
18399;SDS011;9326;49.468;11.008;2023-04-03T16:44:00;2.87;;;1.63;;
18399;SDS011;9326;49.468;11.008;2023-04-03T16:46:27;1.90;;;1.20;;
18399;SDS011;9326;49.468;11.008;2023-04-03T16:48:56;1.60;;;1.17;;
18399;SDS011;9326;49.468;11.008;2023-04-03T16:51:23;1.67;;;0.73;;
18399;SDS011;9326;49.468;11.008;2023-04-03T16:53:51;2.33;;;1.50;;
18399;SDS011;9326;49.468;11.008;2023-04-03T16:56:18;4.33;;;1.10;;
18399;SDS011;9326;49.468;11.008;2023-04-03T16:58:47;2.27;;;1.10;;
18399;SDS011;9326;49.468;11.008;2023-04-03T17:01:15;4.37;;;1.23;;
18399;SDS011;9326;49.468;11.008;2023-04-03T17:03:43;1.53;;;1.20;;
18399;SDS011;9326;49.468;11.008;2023-04-03T17:06:14;1.37;;;1.00;;
18399;SDS011;9326;49.468;11.008;2023-04-03T17:08:42;1.60;;;1.13;;
18399;SDS011;9326;49.468;11.008;2023-04-03T17:11:14;1.73;;;0.80;;
18399;SDS011;9326;49.468;11.008;2023-04-03T17:13:41;3.23;;;1.40;;
18399;SDS011;9326;49.468;11.008;2023-04-03T17:16:09;2.97;;;1.10;;
18399;SDS011;9326;49.468;11.008;2023-04-03T17:18:37;4.03;;;1.47;;
18399;SDS011;9326;49.468;11.008;2023-04-03T17:21:04;2.53;;;1.17;;
18399;SDS011;9326;49.468;11.008;2023-04-03T17:23:33;1.40;;;0.60;;
18399;SDS011;9326;49.468;11.008;2023-04-03T17:26:01;2.10;;;0.90;;
18399;SDS011;9326;49.468;11.008;2023-04-03T17:28:28;1.90;;;0.67;;
18399;SDS011;9326;49.468;11.008;2023-04-03T17:30:56;1.17;;;0.80;;
18399;SDS011;9326;49.468;11.008;2023-04-03T17:33:23;1.23;;;1.00;;
18399;SDS011;9326;49.468;11.008;2023-04-03T17:35:52;1.20;;;1.10;;
18399;SDS011;9326;49.468;11.008;2023-04-03T17:38:20;3.47;;;1.10;;
18399;SDS011;9326;49.468;11.008;2023-04-03T17:40:49;0.83;;;0.73;;
18399;SDS011;9326;49.468;11.008;2023-04-03T17:43:16;3.23;;;1.40;;
18399;SDS011;9326;49.468;11.008;2023-04-03T17:45:43;1.90;;;1.03;;
18399;SDS011;9326;49.468;11.008;2023-04-03T17:48:10;1.70;;;1.00;;
18399;SDS011;9326;49.468;11.008;2023-04-03T17:50:38;1.70;;;1.10;;
18399;SDS011;9326;49.468;11.008;2023-04-03T17:53:05;4.43;;;1.90;;
18399;SDS011;9326;49.468;11.008;2023-04-03T17:55:32;4.17;;;2.83;;
18399;SDS011;9326;49.468;11.008;2023-04-03T17:58:01;0.50;;;0.50;;
18399;SDS011;9326;49.468;11.008;2023-04-03T18:00:28;2.47;;;1.37;;
18399;SDS011;9326;49.468;11.008;2023-04-03T18:02:56;3.23;;;1.23;;
18399;SDS011;9326;49.468;11.008;2023-04-03T18:05:26;1.30;;;1.20;;
18399;SDS011;9326;49.468;11.008;2023-04-03T18:07:54;0.80;;;0.80;;
18399;SDS011;9326;49.468;11.008;2023-04-03T18:10:22;1.17;;;0.80;;
18399;SDS011;9326;49.468;11.008;2023-04-03T18:12:50;2.10;;;1.20;;
18399;SDS011;9326;49.468;11.008;2023-04-03T18:15:18;4.27;;;0.90;;
18399;SDS011;9326;49.468;11.008;2023-04-03T18:17:47;2.17;;;1.30;;
18399;SDS011;9326;49.468;11.008;2023-04-03T18:20:15;2.10;;;1.10;;
18399;SDS011;9326;49.468;11.008;2023-04-03T18:22:44;4.57;;;1.00;;
18399;SDS011;9326;49.468;11.008;2023-04-03T18:25:11;3.63;;;1.30;;
18399;SDS011;9326;49.468;11.008;2023-04-03T18:27:40;1.60;;;0.87;;
18399;SDS011;9326;49.468;11.008;2023-04-03T18:30:09;1.20;;;1.07;;
18399;SDS011;9326;49.468;11.008;2023-04-03T18:32:39;2.40;;;1.03;;
18399;SDS011;9326;49.468;11.008;2023-04-03T18:35:08;1.07;;;0.97;;
18399;SDS011;9326;49.468;11.008;2023-04-03T18:37:35;2.13;;;1.30;;
18399;SDS011;9326;49.468;11.008;2023-04-03T18:40:02;3.07;;;1.37;;
18399;SDS011;9326;49.468;11.008;2023-04-03T18:42:29;1.40;;;1.30;;
18399;SDS011;9326;49.468;11.008;2023-04-03T18:44:57;1.83;;;0.93;;
18399;SDS011;9326;49.468;11.008;2023-04-03T18:47:26;1.53;;;1.20;;
18399;SDS011;9326;49.468;11.008;2023-04-03T18:49:56;3.87;;;0.83;;
18399;SDS011;9326;49.468;11.008;2023-04-03T18:52:23;0.97;;;0.87;;
18399;SDS011;9326;49.468;11.008;2023-04-03T18:54:52;1.83;;;0.80;;
18399;SDS011;9326;49.468;11.008;2023-04-03T18:57:20;3.57;;;1.13;;
18399;SDS011;9326;49.468;11.008;2023-04-03T18:59:48;2.63;;;1.43;;
18399;SDS011;9326;49.468;11.008;2023-04-03T19:02:15;2.20;;;1.23;;
18399;SDS011;9326;49.468;11.008;2023-04-03T19:04:45;1.40;;;1.10;;
18399;SDS011;9326;49.468;11.008;2023-04-03T19:07:14;1.47;;;1.23;;
18399;SDS011;9326;49.468;11.008;2023-04-03T19:09:41;2.60;;;1.40;;
18399;SDS011;9326;49.468;11.008;2023-04-03T19:12:08;3.20;;;1.43;;
18399;SDS011;9326;49.468;11.008;2023-04-03T19:14:35;1.63;;;0.90;;
18399;SDS011;9326;49.468;11.008;2023-04-03T19:17:02;0.60;;;0.50;;
18399;SDS011;9326;49.468;11.008;2023-04-03T19:19:32;3.17;;;1.57;;
18399;SDS011;9326;49.468;11.008;2023-04-03T19:21:59;0.63;;;0.60;;
18399;SDS011;9326;49.468;11.008;2023-04-03T19:24:28;4.37;;;1.83;;
18399;SDS011;9326;49.468;11.008;2023-04-03T19:26:55;3.80;;;1.60;;
18399;SDS011;9326;49.468;11.008;2023-04-03T19:29:22;2.50;;;1.57;;
18399;SDS011;9326;49.468;11.008;2023-04-03T19:31:49;2.80;;;1.20;;
18399;SDS011;9326;49.468;11.008;2023-04-03T19:34:16;4.13;;;1.57;;
18399;SDS011;9326;49.468;11.008;2023-04-03T19:36:43;3.43;;;1.53;;
18399;SDS011;9326;49.468;11.008;2023-04-03T19:39:12;3.10;;;1.60;;
18399;SDS011;9326;49.468;11.008;2023-04-03T19:41:40;4.37;;;1.90;;
18399;SDS011;9326;49.468;11.008;2023-04-03T19:44:09;1.47;;;1.13;;
18399;SDS011;9326;49.468;11.008;2023-04-03T19:46:36;1.27;;;1.03;;
18399;SDS011;9326;49.468;11.008;2023-04-03T19:49:04;1.23;;;0.77;;
18399;SDS011;9326;49.468;11.008;2023-04-03T19:51:34;1.50;;;0.90;;
18399;SDS011;9326;49.468;11.008;2023-04-03T19:54:01;1.47;;;0.90;;
18399;SDS011;9326;49.468;11.008;2023-04-03T19:56:29;3.13;;;1.10;;
18399;SDS011;9326;49.468;11.008;2023-04-03T19:58:58;1.10;;;1.00;;
18399;SDS011;9326;49.468;11.008;2023-04-03T20:01:25;1.57;;;0.70;;
18399;SDS011;9326;49.468;11.008;2023-04-03T20:03:54;1.30;;;1.20;;
18399;SDS011;9326;49.468;11.008;2023-04-03T20:06:22;1.93;;;1.40;;
18399;SDS011;9326;49.468;11.008;2023-04-03T20:08:49;3.00;;;1.40;;
18399;SDS011;9326;49.468;11.008;2023-04-03T20:11:17;1.67;;;0.90;;